sensor_id;sensor_type;location;lat;lon;timestamp;P1;durP1;ratioP1;P2;durP2;ratioP2
60492;SDS011;46341;51.290;-2.474;2023-05-18T00:02:00;6.88;;;5.35;;
60492;SDS011;46341;51.290;-2.474;2023-05-18T00:04:29;7.32;;;5.10;;
60492;SDS011;46341;51.290;-2.474;2023-05-18T00:06:58;6.30;;;5.13;;
60492;SDS011;46341;51.290;-2.474;2023-05-18T00:09:28;8.30;;;5.57;;
60492;SDS011;46341;51.290;-2.474;2023-05-18T00:11:55;9.60;;;5.82;;
60492;SDS011;46341;51.290;-2.474;2023-05-18T00:14:22;8.30;;;5.93;;
60492;SDS011;46341;51.290;-2.474;2023-05-18T00:16:48;10.68;;;6.00;;
60492;SDS011;46341;51.290;-2.474;2023-05-18T00:19:15;9.20;;;5.75;;
60492;SDS011;46341;51.290;-2.474;2023-05-18T00:21:42;10.13;;;5.65;;
60492;SDS011;46341;51.290;-2.474;2023-05-18T00:24:08;10.77;;;6.17;;
60492;SDS011;46341;51.290;-2.474;2023-05-18T00:26:38;8.32;;;5.80;;
60492;SDS011;46341;51.290;-2.474;2023-05-18T00:29:05;8.18;;;5.65;;
60492;SDS011;46341;51.290;-2.474;2023-05-18T00:31:31;12.30;;;6.90;;
60492;SDS011;46341;51.290;-2.474;2023-05-18T00:34:01;7.82;;;5.38;;
60492;SDS011;46341;51.290;-2.474;2023-05-18T00:36:29;10.57;;;6.00;;
60492;SDS011;46341;51.290;-2.474;2023-05-18T00:38:56;8.85;;;6.00;;
60492;SDS011;46341;51.290;-2.474;2023-05-18T00:41:23;10.18;;;5.72;;
60492;SDS011;46341;51.290;-2.474;2023-05-18T00:43:51;8.18;;;5.70;;
60492;SDS011;46341;51.290;-2.474;2023-05-18T00:46:18;8.57;;;6.60;;
60492;SDS011;46341;51.290;-2.474;2023-05-18T00:48:45;12.05;;;6.88;;
60492;SDS011;46341;51.290;-2.474;2023-05-18T00:51:11;8.20;;;5.80;;
60492;SDS011;46341;51.290;-2.474;2023-05-18T00:53:38;8.30;;;6.00;;
60492;SDS011;46341;51.290;-2.474;2023-05-18T00:58:32;8.57;;;5.28;;
60492;SDS011;46341;51.290;-2.474;2023-05-18T01:00:59;8.55;;;5.70;;
60492;SDS011;46341;51.290;-2.474;2023-05-18T01:03:27;7.38;;;5.70;;
60492;SDS011;46341;51.290;-2.474;2023-05-18T01:05:55;9.98;;;6.47;;
60492;SDS011;46341;51.290;-2.474;2023-05-18T01:08:24;7.38;;;5.93;;
60492;SDS011;46341;51.290;-2.474;2023-05-18T01:10:53;7.55;;;5.53;;
60492;SDS011;46341;51.290;-2.474;2023-05-18T01:13:27;8.52;;;5.45;;
60492;SDS011;46341;51.290;-2.474;2023-05-18T01:15:56;10.38;;;6.32;;
60492;SDS011;46341;51.290;-2.474;2023-05-18T01:18:30;10.55;;;5.78;;
60492;SDS011;46341;51.290;-2.474;2023-05-18T01:26:49;9.13;;;6.00;;
60492;SDS011;46341;51.290;-2.474;2023-05-18T01:29:00;9.77;;;6.55;;
60492;SDS011;46341;51.290;-2.474;2023-05-18T01:31:28;9.15;;;5.80;;
60492;SDS011;46341;51.290;-2.474;2023-05-18T01:33:55;10.27;;;5.97;;
60492;SDS011;46341;51.290;-2.474;2023-05-18T01:36:21;8.15;;;6.00;;
60492;SDS011;46341;51.290;-2.474;2023-05-18T01:38:48;8.15;;;5.80;;
60492;SDS011;46341;51.290;-2.474;2023-05-18T01:41:19;7.13;;;5.88;;
60492;SDS011;46341;51.290;-2.474;2023-05-18T01:48:52;9.40;;;6.10;;
60492;SDS011;46341;51.290;-2.474;2023-05-18T01:51:19;9.07;;;6.10;;
60492;SDS011;46341;51.290;-2.474;2023-05-18T01:53:54;8.57;;;5.97;;
60492;SDS011;46341;51.290;-2.474;2023-05-18T01:56:22;7.35;;;5.35;;
60492;SDS011;46341;51.290;-2.474;2023-05-18T01:58:49;7.85;;;6.10;;
60492;SDS011;46341;51.290;-2.474;2023-05-18T02:01:15;8.57;;;6.95;;
60492;SDS011;46341;51.290;-2.474;2023-05-18T02:03:45;8.98;;;6.88;;
60492;SDS011;46341;51.290;-2.474;2023-05-18T02:06:13;9.00;;;6.35;;
60492;SDS011;46341;51.290;-2.474;2023-05-18T02:08:39;7.38;;;5.88;;
60492;SDS011;46341;51.290;-2.474;2023-05-18T02:11:06;8.38;;;6.28;;
60492;SDS011;46341;51.290;-2.474;2023-05-18T02:13:32;8.23;;;6.07;;
60492;SDS011;46341;51.290;-2.474;2023-05-18T02:15:58;9.15;;;6.00;;
60492;SDS011;46341;51.290;-2.474;2023-05-18T02:18:25;10.73;;;5.82;;
60492;SDS011;46341;51.290;-2.474;2023-05-18T02:20:57;7.45;;;6.15;;
60492;SDS011;46341;51.290;-2.474;2023-05-18T02:23:25;9.93;;;6.43;;
60492;SDS011;46341;51.290;-2.474;2023-05-18T02:25:51;7.18;;;5.40;;
60492;SDS011;46341;51.290;-2.474;2023-05-18T02:28:21;8.70;;;5.70;;
60492;SDS011;46341;51.290;-2.474;2023-05-18T02:30:48;8.13;;;5.85;;
60492;SDS011;46341;51.290;-2.474;2023-05-18T02:33:14;8.10;;;5.57;;
60492;SDS011;46341;51.290;-2.474;2023-05-18T02:35:42;10.32;;;6.20;;
60492;SDS011;46341;51.290;-2.474;2023-05-18T02:38:09;8.52;;;6.05;;
60492;SDS011;46341;51.290;-2.474;2023-05-18T02:40:36;9.05;;;5.57;;
60492;SDS011;46341;51.290;-2.474;2023-05-18T02:43:02;6.95;;;5.60;;
60492;SDS011;46341;51.290;-2.474;2023-05-18T02:45:28;8.82;;;6.28;;
60492;SDS011;46341;51.290;-2.474;2023-05-18T02:47:55;7.07;;;5.45;;
60492;SDS011;46341;51.290;-2.474;2023-05-18T02:50:22;7.20;;;5.35;;
60492;SDS011;46341;51.290;-2.474;2023-05-18T02:52:48;7.38;;;5.38;;
60492;SDS011;46341;51.290;-2.474;2023-05-18T02:55:15;8.98;;;5.55;;
60492;SDS011;46341;51.290;-2.474;2023-05-18T02:57:42;7.30;;;5.70;;
60492;SDS011;46341;51.290;-2.474;2023-05-18T03:00:12;9.00;;;5.97;;
60492;SDS011;46341;51.290;-2.474;2023-05-18T03:02:41;7.63;;;5.68;;
60492;SDS011;46341;51.290;-2.474;2023-05-18T03:05:09;8.88;;;5.90;;
60492;SDS011;46341;51.290;-2.474;2023-05-18T03:07:36;10.00;;;6.28;;
60492;SDS011;46341;51.290;-2.474;2023-05-18T03:10:02;11.30;;;6.20;;
60492;SDS011;46341;51.290;-2.474;2023-05-18T03:12:29;6.25;;;5.45;;
60492;SDS011;46341;51.290;-2.474;2023-05-18T03:14:55;7.35;;;6.10;;
60492;SDS011;46341;51.290;-2.474;2023-05-18T03:17:22;6.72;;;5.82;;
60492;SDS011;46341;51.290;-2.474;2023-05-18T03:19:48;7.45;;;6.22;;
60492;SDS011;46341;51.290;-2.474;2023-05-18T03:22:14;6.78;;;5.82;;
60492;SDS011;46341;51.290;-2.474;2023-05-18T03:24:41;6.90;;;6.00;;
60492;SDS011;46341;51.290;-2.474;2023-05-18T03:27:08;7.07;;;5.80;;
60492;SDS011;46341;51.290;-2.474;2023-05-18T03:29:34;8.32;;;5.78;;
60492;SDS011;46341;51.290;-2.474;2023-05-18T03:32:01;9.57;;;5.70;;
60492;SDS011;46341;51.290;-2.474;2023-05-18T03:34:27;8.60;;;5.78;;
60492;SDS011;46341;51.290;-2.474;2023-05-18T03:36:54;7.90;;;5.43;;
60492;SDS011;46341;51.290;-2.474;2023-05-18T03:39:20;6.85;;;5.85;;
60492;SDS011;46341;51.290;-2.474;2023-05-18T03:41:47;8.40;;;6.07;;
60492;SDS011;46341;51.290;-2.474;2023-05-18T03:44:13;8.60;;;6.25;;
60492;SDS011;46341;51.290;-2.474;2023-05-18T03:46:40;7.43;;;5.97;;
60492;SDS011;46341;51.290;-2.474;2023-05-18T03:49:07;8.30;;;5.53;;
60492;SDS011;46341;51.290;-2.474;2023-05-18T03:51:33;8.00;;;5.75;;
60492;SDS011;46341;51.290;-2.474;2023-05-18T03:53:59;7.03;;;5.80;;
60492;SDS011;46341;51.290;-2.474;2023-05-18T03:56:26;8.98;;;6.18;;
60492;SDS011;46341;51.290;-2.474;2023-05-18T03:58:56;8.15;;;6.68;;
60492;SDS011;46341;51.290;-2.474;2023-05-18T04:01:23;8.02;;;6.03;;
60492;SDS011;46341;51.290;-2.474;2023-05-18T04:03:50;7.72;;;6.38;;
60492;SDS011;46341;51.290;-2.474;2023-05-18T04:06:16;8.98;;;5.72;;
60492;SDS011;46341;51.290;-2.474;2023-05-18T04:08:43;8.60;;;6.35;;
60492;SDS011;46341;51.290;-2.474;2023-05-18T04:11:11;9.38;;;6.28;;
60492;SDS011;46341;51.290;-2.474;2023-05-18T04:13:37;8.77;;;6.13;;
60492;SDS011;46341;51.290;-2.474;2023-05-18T04:16:04;9.85;;;5.90;;
60492;SDS011;46341;51.290;-2.474;2023-05-18T04:18:30;7.97;;;6.15;;
60492;SDS011;46341;51.290;-2.474;2023-05-18T04:20:57;9.20;;;6.90;;
60492;SDS011;46341;51.290;-2.474;2023-05-18T04:23:23;9.43;;;6.30;;
60492;SDS011;46341;51.290;-2.474;2023-05-18T04:25:50;8.13;;;6.60;;
60492;SDS011;46341;51.290;-2.474;2023-05-18T04:28:16;8.57;;;6.13;;
60492;SDS011;46341;51.290;-2.474;2023-05-18T04:30:44;8.75;;;6.22;;
60492;SDS011;46341;51.290;-2.474;2023-05-18T04:33:11;10.03;;;6.50;;
60492;SDS011;46341;51.290;-2.474;2023-05-18T04:35:38;9.68;;;7.00;;
60492;SDS011;46341;51.290;-2.474;2023-05-18T04:38:05;8.45;;;5.97;;
60492;SDS011;46341;51.290;-2.474;2023-05-18T04:40:31;12.50;;;6.85;;
60492;SDS011;46341;51.290;-2.474;2023-05-18T04:42:59;8.93;;;6.80;;
60492;SDS011;46341;51.290;-2.474;2023-05-18T04:45:25;8.48;;;6.25;;
60492;SDS011;46341;51.290;-2.474;2023-05-18T04:47:52;8.48;;;7.03;;
60492;SDS011;46341;51.290;-2.474;2023-05-18T04:50:19;9.27;;;7.13;;
60492;SDS011;46341;51.290;-2.474;2023-05-18T04:52:47;8.93;;;7.35;;
60492;SDS011;46341;51.290;-2.474;2023-05-18T04:57:40;8.60;;;7.70;;
60492;SDS011;46341;51.290;-2.474;2023-05-18T05:00:07;8.23;;;6.45;;
60492;SDS011;46341;51.290;-2.474;2023-05-18T05:02:34;11.85;;;7.05;;
60492;SDS011;46341;51.290;-2.474;2023-05-18T05:05:01;8.57;;;6.38;;
60492;SDS011;46341;51.290;-2.474;2023-05-18T05:07:28;10.55;;;6.72;;
60492;SDS011;46341;51.290;-2.474;2023-05-18T05:09:54;9.05;;;6.47;;
60492;SDS011;46341;51.290;-2.474;2023-05-18T05:12:20;13.13;;;6.50;;
60492;SDS011;46341;51.290;-2.474;2023-05-18T05:14:47;10.23;;;6.78;;
60492;SDS011;46341;51.290;-2.474;2023-05-18T05:17:13;7.63;;;6.82;;
60492;SDS011;46341;51.290;-2.474;2023-05-18T05:19:40;8.88;;;6.28;;
60492;SDS011;46341;51.290;-2.474;2023-05-18T05:22:07;8.20;;;6.50;;
60492;SDS011;46341;51.290;-2.474;2023-05-18T05:24:33;7.95;;;6.20;;
60492;SDS011;46341;51.290;-2.474;2023-05-18T05:27:00;8.48;;;6.30;;
60492;SDS011;46341;51.290;-2.474;2023-05-18T05:29:26;7.13;;;6.43;;
60492;SDS011;46341;51.290;-2.474;2023-05-18T05:31:53;10.13;;;6.55;;
60492;SDS011;46341;51.290;-2.474;2023-05-18T05:34:19;9.43;;;7.18;;
60492;SDS011;46341;51.290;-2.474;2023-05-18T05:36:46;10.35;;;7.70;;
60492;SDS011;46341;51.290;-2.474;2023-05-18T05:39:12;9.20;;;7.30;;
60492;SDS011;46341;51.290;-2.474;2023-05-18T05:41:38;11.02;;;7.18;;
60492;SDS011;46341;51.290;-2.474;2023-05-18T05:44:05;7.32;;;6.53;;
60492;SDS011;46341;51.290;-2.474;2023-05-18T05:46:31;8.98;;;7.07;;
60492;SDS011;46341;51.290;-2.474;2023-05-18T05:48:58;8.88;;;7.47;;
60492;SDS011;46341;51.290;-2.474;2023-05-18T05:51:25;9.52;;;7.13;;
60492;SDS011;46341;51.290;-2.474;2023-05-18T05:53:51;13.38;;;9.68;;
60492;SDS011;46341;51.290;-2.474;2023-05-18T05:56:18;16.50;;;11.40;;
60492;SDS011;46341;51.290;-2.474;2023-05-18T05:58:44;13.20;;;10.65;;
60492;SDS011;46341;51.290;-2.474;2023-05-18T06:01:11;14.63;;;10.20;;
60492;SDS011;46341;51.290;-2.474;2023-05-18T06:03:37;10.57;;;7.88;;
60492;SDS011;46341;51.290;-2.474;2023-05-18T06:06:04;10.80;;;7.87;;
60492;SDS011;46341;51.290;-2.474;2023-05-18T06:08:30;11.07;;;8.32;;
60492;SDS011;46341;51.290;-2.474;2023-05-18T06:10:57;12.25;;;7.90;;
60492;SDS011;46341;51.290;-2.474;2023-05-18T06:13:24;9.63;;;7.32;;
60492;SDS011;46341;51.290;-2.474;2023-05-18T06:15:50;13.48;;;8.73;;
60492;SDS011;46341;51.290;-2.474;2023-05-18T06:18:16;10.25;;;8.50;;
60492;SDS011;46341;51.290;-2.474;2023-05-18T06:20:43;10.80;;;8.60;;
60492;SDS011;46341;51.290;-2.474;2023-05-18T06:23:10;10.80;;;8.57;;
60492;SDS011;46341;51.290;-2.474;2023-05-18T06:25:36;10.75;;;7.75;;
60492;SDS011;46341;51.290;-2.474;2023-05-18T06:28:03;13.88;;;8.65;;
60492;SDS011;46341;51.290;-2.474;2023-05-18T06:30:29;13.13;;;9.00;;
60492;SDS011;46341;51.290;-2.474;2023-05-18T06:32:56;12.02;;;8.60;;
60492;SDS011;46341;51.290;-2.474;2023-05-18T06:35:22;12.85;;;9.50;;
60492;SDS011;46341;51.290;-2.474;2023-05-18T06:40:16;13.20;;;8.77;;
60492;SDS011;46341;51.290;-2.474;2023-05-18T06:42:43;13.38;;;8.88;;
60492;SDS011;46341;51.290;-2.474;2023-05-18T06:45:09;15.07;;;9.52;;
60492;SDS011;46341;51.290;-2.474;2023-05-18T06:47:36;12.80;;;9.53;;
60492;SDS011;46341;51.290;-2.474;2023-05-18T06:50:03;14.73;;;10.00;;
60492;SDS011;46341;51.290;-2.474;2023-05-18T06:52:29;16.50;;;10.02;;
60492;SDS011;46341;51.290;-2.474;2023-05-18T06:54:56;14.63;;;10.27;;
60492;SDS011;46341;51.290;-2.474;2023-05-18T06:57:22;17.25;;;11.05;;
60492;SDS011;46341;51.290;-2.474;2023-05-18T06:59:49;13.93;;;10.60;;
60492;SDS011;46341;51.290;-2.474;2023-05-18T07:02:19;14.60;;;10.07;;
60492;SDS011;46341;51.290;-2.474;2023-05-18T07:07:12;13.80;;;11.02;;
60492;SDS011;46341;51.290;-2.474;2023-05-18T07:09:39;11.82;;;10.27;;
60492;SDS011;46341;51.290;-2.474;2023-05-18T07:12:08;16.38;;;11.43;;
60492;SDS011;46341;51.290;-2.474;2023-05-18T07:14:34;16.33;;;11.15;;
60492;SDS011;46341;51.290;-2.474;2023-05-18T07:17:01;18.05;;;12.02;;
60492;SDS011;46341;51.290;-2.474;2023-05-18T07:19:27;15.75;;;10.90;;
60492;SDS011;46341;51.290;-2.474;2023-05-18T07:21:54;15.60;;;11.73;;
60492;SDS011;46341;51.290;-2.474;2023-05-18T07:24:21;14.93;;;11.38;;
60492;SDS011;46341;51.290;-2.474;2023-05-18T07:26:48;15.75;;;11.73;;
60492;SDS011;46341;51.290;-2.474;2023-05-18T07:29:14;15.43;;;11.35;;
60492;SDS011;46341;51.290;-2.474;2023-05-18T07:31:41;19.48;;;11.75;;
60492;SDS011;46341;51.290;-2.474;2023-05-18T07:34:07;17.13;;;11.00;;
60492;SDS011;46341;51.290;-2.474;2023-05-18T07:36:34;16.52;;;11.13;;
60492;SDS011;46341;51.290;-2.474;2023-05-18T07:39:00;12.93;;;10.43;;
60492;SDS011;46341;51.290;-2.474;2023-05-18T07:41:27;15.98;;;10.82;;
60492;SDS011;46341;51.290;-2.474;2023-05-18T07:43:53;15.00;;;9.88;;
60492;SDS011;46341;51.290;-2.474;2023-05-18T07:46:19;11.88;;;8.52;;
60492;SDS011;46341;51.290;-2.474;2023-05-18T07:48:46;11.65;;;9.32;;
60492;SDS011;46341;51.290;-2.474;2023-05-18T07:51:12;14.27;;;9.20;;
60492;SDS011;46341;51.290;-2.474;2023-05-18T07:53:39;12.02;;;9.18;;
60492;SDS011;46341;51.290;-2.474;2023-05-18T08:01:00;13.18;;;9.05;;
60492;SDS011;46341;51.290;-2.474;2023-05-18T08:03:26;13.20;;;9.30;;
60492;SDS011;46341;51.290;-2.474;2023-05-18T08:05:53;15.10;;;9.40;;
60492;SDS011;46341;51.290;-2.474;2023-05-18T08:08:19;12.02;;;8.10;;
60492;SDS011;46341;51.290;-2.474;2023-05-18T08:10:46;11.75;;;8.20;;
60492;SDS011;46341;51.290;-2.474;2023-05-18T08:13:13;11.40;;;9.05;;
60492;SDS011;46341;51.290;-2.474;2023-05-18T08:15:39;10.50;;;8.32;;
60492;SDS011;46341;51.290;-2.474;2023-05-18T08:18:06;10.85;;;7.95;;
60492;SDS011;46341;51.290;-2.474;2023-05-18T08:20:32;11.63;;;7.17;;
60492;SDS011;46341;51.290;-2.474;2023-05-18T08:22:59;11.38;;;7.68;;
60492;SDS011;46341;51.290;-2.474;2023-05-18T08:25:26;13.30;;;7.82;;
60492;SDS011;46341;51.290;-2.474;2023-05-18T08:27:52;9.83;;;7.40;;
60492;SDS011;46341;51.290;-2.474;2023-05-18T08:30:19;9.93;;;6.88;;
60492;SDS011;46341;51.290;-2.474;2023-05-18T08:32:47;9.15;;;6.13;;
60492;SDS011;46341;51.290;-2.474;2023-05-18T08:35:13;9.02;;;6.55;;
60492;SDS011;46341;51.290;-2.474;2023-05-18T08:37:40;9.93;;;6.13;;
60492;SDS011;46341;51.290;-2.474;2023-05-18T08:40:06;7.38;;;5.97;;
60492;SDS011;46341;51.290;-2.474;2023-05-18T08:42:36;8.35;;;6.10;;
60492;SDS011;46341;51.290;-2.474;2023-05-18T08:48:00;10.80;;;5.43;;
60492;SDS011;46341;51.290;-2.474;2023-05-18T08:50:29;7.32;;;5.68;;
60492;SDS011;46341;51.290;-2.474;2023-05-18T08:53:00;7.03;;;5.57;;
60492;SDS011;46341;51.290;-2.474;2023-05-18T08:55:27;6.30;;;5.15;;
60492;SDS011;46341;51.290;-2.474;2023-05-18T09:00:21;7.25;;;5.43;;
60492;SDS011;46341;51.290;-2.474;2023-05-18T09:02:50;7.95;;;5.30;;
60492;SDS011;46341;51.290;-2.474;2023-05-18T09:05:16;8.15;;;5.25;;
60492;SDS011;46341;51.290;-2.474;2023-05-18T09:07:43;6.43;;;5.10;;
60492;SDS011;46341;51.290;-2.474;2023-05-18T09:10:11;10.25;;;5.53;;
60492;SDS011;46341;51.290;-2.474;2023-05-18T09:12:39;9.07;;;5.38;;
60492;SDS011;46341;51.290;-2.474;2023-05-18T09:15:10;6.47;;;5.25;;
60492;SDS011;46341;51.290;-2.474;2023-05-18T09:17:36;7.68;;;5.78;;
60492;SDS011;46341;51.290;-2.474;2023-05-18T09:20:03;9.85;;;5.93;;
60492;SDS011;46341;51.290;-2.474;2023-05-18T09:22:33;6.53;;;5.40;;
60492;SDS011;46341;51.290;-2.474;2023-05-18T09:25:08;7.72;;;5.53;;
60492;SDS011;46341;51.290;-2.474;2023-05-18T09:27:36;7.00;;;5.45;;
60492;SDS011;46341;51.290;-2.474;2023-05-18T09:30:02;8.25;;;5.65;;
60492;SDS011;46341;51.290;-2.474;2023-05-18T09:32:32;7.05;;;4.97;;
60492;SDS011;46341;51.290;-2.474;2023-05-18T09:35:03;6.93;;;5.18;;
60492;SDS011;46341;51.290;-2.474;2023-05-18T09:37:30;7.68;;;5.70;;
60492;SDS011;46341;51.290;-2.474;2023-05-18T09:39:57;5.97;;;5.35;;
60492;SDS011;46341;51.290;-2.474;2023-05-18T09:42:36;8.52;;;5.70;;
60492;SDS011;46341;51.290;-2.474;2023-05-18T09:45:22;9.25;;;5.43;;
60492;SDS011;46341;51.290;-2.474;2023-05-18T09:47:49;8.98;;;5.82;;
60492;SDS011;46341;51.290;-2.474;2023-05-18T09:52:43;6.93;;;5.35;;
60492;SDS011;46341;51.290;-2.474;2023-05-18T09:57:40;6.88;;;6.18;;
60492;SDS011;46341;51.290;-2.474;2023-05-18T10:00:07;7.43;;;5.20;;
60492;SDS011;46341;51.290;-2.474;2023-05-18T10:02:42;7.15;;;4.85;;
60492;SDS011;46341;51.290;-2.474;2023-05-18T10:05:26;6.15;;;4.03;;
60492;SDS011;46341;51.290;-2.474;2023-05-18T10:07:53;6.20;;;4.80;;
60492;SDS011;46341;51.290;-2.474;2023-05-18T10:10:22;8.07;;;4.88;;
60492;SDS011;46341;51.290;-2.474;2023-05-18T10:12:49;6.07;;;4.40;;
60492;SDS011;46341;51.290;-2.474;2023-05-18T10:15:16;5.18;;;4.10;;
60492;SDS011;46341;51.290;-2.474;2023-05-18T10:17:45;5.55;;;4.60;;
60492;SDS011;46341;51.290;-2.474;2023-05-18T10:20:14;4.82;;;4.32;;
60492;SDS011;46341;51.290;-2.474;2023-05-18T10:22:43;4.90;;;3.97;;
60492;SDS011;46341;51.290;-2.474;2023-05-18T10:25:10;7.13;;;3.95;;
60492;SDS011;46341;51.290;-2.474;2023-05-18T10:27:39;5.80;;;4.28;;
60492;SDS011;46341;51.290;-2.474;2023-05-18T10:30:07;5.55;;;3.88;;
60492;SDS011;46341;51.290;-2.474;2023-05-18T10:32:35;6.18;;;4.45;;
60492;SDS011;46341;51.290;-2.474;2023-05-18T10:35:02;5.47;;;4.50;;
60492;SDS011;46341;51.290;-2.474;2023-05-18T10:39:58;5.10;;;4.00;;
60492;SDS011;46341;51.290;-2.474;2023-05-18T10:42:25;5.43;;;4.30;;
60492;SDS011;46341;51.290;-2.474;2023-05-18T10:44:52;6.87;;;4.03;;
60492;SDS011;46341;51.290;-2.474;2023-05-18T10:47:18;5.18;;;3.88;;
60492;SDS011;46341;51.290;-2.474;2023-05-18T10:49:46;4.90;;;3.90;;
60492;SDS011;46341;51.290;-2.474;2023-05-18T10:52:15;4.30;;;3.78;;
60492;SDS011;46341;51.290;-2.474;2023-05-18T10:54:42;4.40;;;3.40;;
60492;SDS011;46341;51.290;-2.474;2023-05-18T10:57:15;5.68;;;3.90;;
60492;SDS011;46341;51.290;-2.474;2023-05-18T10:59:43;4.63;;;3.72;;
60492;SDS011;46341;51.290;-2.474;2023-05-18T11:02:13;3.95;;;3.25;;
60492;SDS011;46341;51.290;-2.474;2023-05-18T11:04:41;4.18;;;3.63;;
60492;SDS011;46341;51.290;-2.474;2023-05-18T11:07:11;4.93;;;3.92;;
60492;SDS011;46341;51.290;-2.474;2023-05-18T11:09:42;7.20;;;4.25;;
60492;SDS011;46341;51.290;-2.474;2023-05-18T11:12:12;7.25;;;4.30;;
60492;SDS011;46341;51.290;-2.474;2023-05-18T11:14:49;8.73;;;6.63;;
60492;SDS011;46341;51.290;-2.474;2023-05-18T11:27:51;5.45;;;3.90;;
60492;SDS011;46341;51.290;-2.474;2023-05-18T11:44:03;7.18;;;4.05;;
60492;SDS011;46341;51.290;-2.474;2023-05-18T11:46:32;5.28;;;3.92;;
60492;SDS011;46341;51.290;-2.474;2023-05-18T11:49:02;7.68;;;4.10;;
60492;SDS011;46341;51.290;-2.474;2023-05-18T11:51:30;5.35;;;3.90;;
60492;SDS011;46341;51.290;-2.474;2023-05-18T11:53:57;6.65;;;4.07;;
60492;SDS011;46341;51.290;-2.474;2023-05-18T11:56:29;4.40;;;3.88;;
60492;SDS011;46341;51.290;-2.474;2023-05-18T11:59:11;4.53;;;3.30;;
60492;SDS011;46341;51.290;-2.474;2023-05-18T12:01:39;4.50;;;3.53;;
60492;SDS011;46341;51.290;-2.474;2023-05-18T12:04:06;4.70;;;3.40;;
60492;SDS011;46341;51.290;-2.474;2023-05-18T12:06:33;5.78;;;3.92;;
60492;SDS011;46341;51.290;-2.474;2023-05-18T12:08:59;5.95;;;4.10;;
60492;SDS011;46341;51.290;-2.474;2023-05-18T12:11:26;6.32;;;4.03;;
60492;SDS011;46341;51.290;-2.474;2023-05-18T12:13:53;7.55;;;5.60;;
60492;SDS011;46341;51.290;-2.474;2023-05-18T12:16:20;17.50;;;7.05;;
60492;SDS011;46341;51.290;-2.474;2023-05-18T12:18:50;7.63;;;5.65;;
60492;SDS011;46341;51.290;-2.474;2023-05-18T12:21:23;8.25;;;5.57;;
60492;SDS011;46341;51.290;-2.474;2023-05-18T12:23:59;8.45;;;6.05;;
60492;SDS011;46341;51.290;-2.474;2023-05-18T12:26:26;7.47;;;6.18;;
60492;SDS011;46341;51.290;-2.474;2023-05-18T12:28:54;7.45;;;6.30;;
60492;SDS011;46341;51.290;-2.474;2023-05-18T12:31:21;9.02;;;6.65;;
60492;SDS011;46341;51.290;-2.474;2023-05-18T12:33:47;11.20;;;7.43;;
60492;SDS011;46341;51.290;-2.474;2023-05-18T12:36:14;8.68;;;6.57;;
60492;SDS011;46341;51.290;-2.474;2023-05-18T12:38:41;9.85;;;7.15;;
60492;SDS011;46341;51.290;-2.474;2023-05-18T12:41:07;8.10;;;6.55;;
60492;SDS011;46341;51.290;-2.474;2023-05-18T12:43:34;9.05;;;6.68;;
60492;SDS011;46341;51.290;-2.474;2023-05-18T12:48:27;7.65;;;5.57;;
60492;SDS011;46341;51.290;-2.474;2023-05-18T12:50:56;16.55;;;6.28;;
60492;SDS011;46341;51.290;-2.474;2023-05-18T12:53:22;9.00;;;6.22;;
60492;SDS011;46341;51.290;-2.474;2023-05-18T12:55:56;9.65;;;6.25;;
60492;SDS011;46341;51.290;-2.474;2023-05-18T12:58:23;6.47;;;5.25;;
60492;SDS011;46341;51.290;-2.474;2023-05-18T13:00:49;7.43;;;5.80;;
60492;SDS011;46341;51.290;-2.474;2023-05-18T13:03:17;11.20;;;7.67;;
60492;SDS011;46341;51.290;-2.474;2023-05-18T13:05:45;8.70;;;7.18;;
60492;SDS011;46341;51.290;-2.474;2023-05-18T13:08:15;7.60;;;6.30;;
60492;SDS011;46341;51.290;-2.474;2023-05-18T13:10:47;8.90;;;6.75;;
60492;SDS011;46341;51.290;-2.474;2023-05-18T13:13:26;8.70;;;6.32;;
60492;SDS011;46341;51.290;-2.474;2023-05-18T13:15:53;8.60;;;5.63;;
60492;SDS011;46341;51.290;-2.474;2023-05-18T13:18:19;7.35;;;5.40;;
60492;SDS011;46341;51.290;-2.474;2023-05-18T13:20:48;9.65;;;6.57;;
60492;SDS011;46341;51.290;-2.474;2023-05-18T13:23:17;8.07;;;6.30;;
60492;SDS011;46341;51.290;-2.474;2023-05-18T13:25:44;10.23;;;5.85;;
60492;SDS011;46341;51.290;-2.474;2023-05-18T13:28:12;6.78;;;4.60;;
60492;SDS011;46341;51.290;-2.474;2023-05-18T13:30:39;8.05;;;5.22;;
60492;SDS011;46341;51.290;-2.474;2023-05-18T13:33:07;7.78;;;4.80;;
60492;SDS011;46341;51.290;-2.474;2023-05-18T13:35:34;6.10;;;4.55;;
60492;SDS011;46341;51.290;-2.474;2023-05-18T13:38:01;7.35;;;4.82;;
60492;SDS011;46341;51.290;-2.474;2023-05-18T13:40:27;6.85;;;4.85;;
60492;SDS011;46341;51.290;-2.474;2023-05-18T13:42:54;7.78;;;4.78;;
60492;SDS011;46341;51.290;-2.474;2023-05-18T13:45:20;7.80;;;4.60;;
60492;SDS011;46341;51.290;-2.474;2023-05-18T13:47:47;4.97;;;4.32;;
60492;SDS011;46341;51.290;-2.474;2023-05-18T13:50:18;6.63;;;4.75;;
60492;SDS011;46341;51.290;-2.474;2023-05-18T13:52:46;6.05;;;4.65;;
60492;SDS011;46341;51.290;-2.474;2023-05-18T13:55:13;8.23;;;4.10;;
60492;SDS011;46341;51.290;-2.474;2023-05-18T13:57:39;4.88;;;3.63;;
60492;SDS011;46341;51.290;-2.474;2023-05-18T14:02:44;5.07;;;3.95;;
60492;SDS011;46341;51.290;-2.474;2023-05-18T14:05:11;4.88;;;3.50;;
60492;SDS011;46341;51.290;-2.474;2023-05-18T14:07:39;5.25;;;3.70;;
60492;SDS011;46341;51.290;-2.474;2023-05-18T14:10:06;4.45;;;2.78;;
60492;SDS011;46341;51.290;-2.474;2023-05-18T14:12:32;6.30;;;3.60;;
60492;SDS011;46341;51.290;-2.474;2023-05-18T14:14:59;6.18;;;3.40;;
60492;SDS011;46341;51.290;-2.474;2023-05-18T14:17:26;4.07;;;3.20;;
60492;SDS011;46341;51.290;-2.474;2023-05-18T14:19:55;3.45;;;2.63;;
60492;SDS011;46341;51.290;-2.474;2023-05-18T14:22:22;3.45;;;2.55;;
60492;SDS011;46341;51.290;-2.474;2023-05-18T14:24:51;3.28;;;2.30;;
60492;SDS011;46341;51.290;-2.474;2023-05-18T14:27:17;2.97;;;2.67;;
60492;SDS011;46341;51.290;-2.474;2023-05-18T14:29:47;3.95;;;2.92;;
60492;SDS011;46341;51.290;-2.474;2023-05-18T14:32:14;4.40;;;2.80;;
60492;SDS011;46341;51.290;-2.474;2023-05-18T14:34:40;3.80;;;3.40;;
60492;SDS011;46341;51.290;-2.474;2023-05-18T14:37:07;4.30;;;2.90;;
60492;SDS011;46341;51.290;-2.474;2023-05-18T14:39:33;4.10;;;3.28;;
60492;SDS011;46341;51.290;-2.474;2023-05-18T14:41:59;4.85;;;3.10;;
60492;SDS011;46341;51.290;-2.474;2023-05-18T14:44:26;4.00;;;2.90;;
60492;SDS011;46341;51.290;-2.474;2023-05-18T14:46:52;3.42;;;3.05;;
60492;SDS011;46341;51.290;-2.474;2023-05-18T14:49:19;4.53;;;3.00;;
60492;SDS011;46341;51.290;-2.474;2023-05-18T14:51:45;5.72;;;3.10;;
60492;SDS011;46341;51.290;-2.474;2023-05-18T14:54:12;5.03;;;2.63;;
60492;SDS011;46341;51.290;-2.474;2023-05-18T14:56:39;3.33;;;2.50;;
60492;SDS011;46341;51.290;-2.474;2023-05-18T14:59:05;4.07;;;3.10;;
60492;SDS011;46341;51.290;-2.474;2023-05-18T15:01:32;3.40;;;2.60;;
60492;SDS011;46341;51.290;-2.474;2023-05-18T15:03:58;2.95;;;2.72;;
60492;SDS011;46341;51.290;-2.474;2023-05-18T15:06:25;3.78;;;2.88;;
60492;SDS011;46341;51.290;-2.474;2023-05-18T15:08:51;3.97;;;3.00;;
60492;SDS011;46341;51.290;-2.474;2023-05-18T15:11:18;3.83;;;3.42;;
60492;SDS011;46341;51.290;-2.474;2023-05-18T15:13:45;4.47;;;3.58;;
60492;SDS011;46341;51.290;-2.474;2023-05-18T15:19:34;6.75;;;4.80;;
60492;SDS011;46341;51.290;-2.474;2023-05-18T15:22:01;5.60;;;3.80;;
60492;SDS011;46341;51.290;-2.474;2023-05-18T15:26:53;4.38;;;3.90;;
60492;SDS011;46341;51.290;-2.474;2023-05-18T15:29:20;4.70;;;3.13;;
60492;SDS011;46341;51.290;-2.474;2023-05-18T15:31:47;3.20;;;2.92;;
60492;SDS011;46341;51.290;-2.474;2023-05-18T15:34:16;4.63;;;3.08;;
60492;SDS011;46341;51.290;-2.474;2023-05-18T15:36:42;9.40;;;4.55;;
60492;SDS011;46341;51.290;-2.474;2023-05-18T15:39:09;4.93;;;4.10;;
60492;SDS011;46341;51.290;-2.474;2023-05-18T15:41:35;3.88;;;3.40;;
60492;SDS011;46341;51.290;-2.474;2023-05-18T15:44:01;3.97;;;3.45;;
60492;SDS011;46341;51.290;-2.474;2023-05-18T15:46:29;4.88;;;3.42;;